Time;durP1;ratioP1;P1;durP2;ratioP2;P2;SDS_P1;SDS_P2;PMS_P1;PMS_P2;Temp;Humidity;BMP_temperature;BMP_pressure;BME280_temperature;BME280_humidity;BME280_pressure;Samples;Min_cycle;Max_cycle;Signal;HPM_P1;HPM_P2
2022/11/12 00:01:10;;;;;;;15.60;10.25;;;7.60;99.90;;;;;;4971954;28;20038;-71
2022/11/12 00:03:36;;;;;;;14.60;9.55;;;7.70;99.90;;;;;;4972837;28;20071;-71
2022/11/12 00:06:01;;;;;;;13.73;9.63;;;7.60;99.90;;;;;;4973171;28;20580;-71
2022/11/12 00:08:27;;;;;;;16.85;10.18;;;7.70;99.90;;;;;;4972861;28;20045;-70
2022/11/12 00:10:53;;;;;;;17.48;10.60;;;7.70;99.90;;;;;;4971836;28;20125;-71
2022/11/12 00:13:18;;;;;;;16.10;9.82;;;7.80;99.90;;;;;;4972675;28;20078;-71
2022/11/12 00:15:46;;;;;;;15.38;10.25;;;7.80;99.90;;;;;;4972799;28;20038;-71
2022/11/12 00:18:11;;;;;;;18.52;10.00;;;7.50;99.90;;;;;;4972942;28;20038;-71
2022/11/12 00:20:37;;;;;;;18.95;10.45;;;7.70;99.90;;;;;;4972899;28;20035;-71
2022/11/12 00:23:03;;;;;;;17.17;10.77;;;7.50;99.90;;;;;;4972421;28;20519;-71
2022/11/12 00:25:29;;;;;;;15.07;9.88;;;7.70;99.90;;;;;;4971584;28;20050;-71
2022/11/12 00:28:01;;;;;;;11.50;8.57;;;7.70;99.90;;;;;;4972924;28;20409;-71
2022/11/12 00:30:26;;;;;;;15.27;9.07;;;7.60;99.90;;;;;;4971514;28;20054;-71
2022/11/12 00:32:52;;;;;;;13.95;9.43;;;7.50;99.90;;;;;;4972533;28;20069;-71
2022/11/12 00:35:17;;;;;;;16.55;10.20;;;7.40;99.90;;;;;;4972782;28;20543;-71
2022/11/12 00:37:43;;;;;;;14.13;9.27;;;7.60;99.90;;;;;;4971539;28;20039;-71
2022/11/12 00:40:09;;;;;;;11.85;8.90;;;7.50;99.90;;;;;;4972913;28;20039;-71
2022/11/12 00:42:34;;;;;;;13.30;9.95;;;7.30;99.90;;;;;;4972342;28;20125;-71
2022/11/12 00:45:00;;;;;;;13.85;10.10;;;7.50;99.90;;;;;;4972709;28;20042;-71
2022/11/12 00:47:26;;;;;;;15.93;9.35;;;7.40;99.90;;;;;;4972716;28;20070;-71
2022/11/12 00:49:51;;;;;;;16.85;11.07;;;7.40;99.90;;;;;;4971506;28;20396;-71
2022/11/12 00:52:17;;;;;;;14.85;9.95;;;7.40;99.90;;;;;;4972355;28;20568;-71
2022/11/12 00:54:42;;;;;;;13.88;9.15;;;7.50;99.90;;;;;;4972679;28;20041;-71
2022/11/12 00:57:08;;;;;;;14.77;9.48;;;7.50;99.90;;;;;;4972560;28;20043;-70
2022/11/12 00:59:33;;;;;;;17.88;10.55;;;7.40;99.90;;;;;;4972573;28;20043;-71
2022/11/12 01:01:59;;;;;;;16.75;9.82;;;7.50;99.90;;;;;;4972661;28;20072;-70
2022/11/12 01:04:24;;;;;;;12.18;8.50;;;7.40;99.90;;;;;;4972101;28;20054;-72
2022/11/12 01:06:50;;;;;;;15.55;10.40;;;7.40;99.90;;;;;;4976281;28;20393;-70
2022/11/12 01:09:15;;;;;;;15.85;9.55;;;7.50;99.90;;;;;;4976034;28;20043;-70
2022/11/12 01:11:41;;;;;;;12.80;9.70;;;7.50;99.90;;;;;;4976350;28;20035;-70
2022/11/12 01:14:08;;;;;;;14.45;10.13;;;7.30;99.90;;;;;;4990902;28;20463;-71
2022/11/12 01:16:36;;;;;;;15.35;10.10;;;7.50;99.90;;;;;;4976155;28;20051;-71
2022/11/12 01:19:03;;;;;;;15.60;9.45;;;7.40;99.90;;;;;;4975975;28;20042;-71
2022/11/12 01:21:31;;;;;;;11.63;9.13;;;7.30;99.90;;;;;;4974726;28;20062;-71
2022/11/12 01:23:58;;;;;;;14.98;9.07;;;7.40;99.90;;;;;;4975815;28;20050;-71
2022/11/12 01:26:27;;;;;;;11.05;8.23;;;7.20;99.90;;;;;;4976062;28;20037;-70
2022/11/12 01:28:53;;;;;;;15.35;9.13;;;7.30;99.90;;;;;;4975846;28;20042;-70
2022/11/12 01:31:20;;;;;;;13.77;8.80;;;7.20;99.90;;;;;;4975955;28;20062;-71
2022/11/12 01:33:48;;;;;;;13.07;8.55;;;7.20;99.90;;;;;;4975514;28;20121;-71
2022/11/12 01:36:16;;;;;;;15.68;8.85;;;7.10;99.90;;;;;;4975648;28;20101;-71
2022/11/12 01:38:43;;;;;;;12.00;8.52;;;7.20;99.90;;;;;;4974226;28;20054;-72
2022/11/12 01:41:11;;;;;;;12.55;8.77;;;7.10;99.90;;;;;;4975643;28;20074;-71
2022/11/12 01:43:37;;;;;;;11.27;8.43;;;7.00;99.90;;;;;;4975215;28;20046;-71
2022/11/12 01:46:07;;;;;;;13.30;8.88;;;7.00;99.90;;;;;;4975658;28;20035;-71
2022/11/12 01:48:39;;;;;;;16.58;8.55;;;6.90;99.90;;;;;;4975362;28;20035;-71
2022/11/12 01:51:06;;;;;;;13.57;9.30;;;7.00;99.90;;;;;;4975777;28;20042;-70
2022/11/12 01:53:40;;;;;;;13.73;9.63;;;7.00;99.90;;;;;;4975340;28;20043;-71
2022/11/12 01:56:07;;;;;;;13.85;10.15;;;7.00;99.90;;;;;;4975536;28;20049;-71
2022/11/12 01:58:35;;;;;;;13.00;9.45;;;6.90;99.90;;;;;;4975225;28;20054;-71
2022/11/12 02:01:02;;;;;;;12.40;9.18;;;6.90;99.90;;;;;;4975174;28;20501;-71
2022/11/12 02:03:27;;;;;;;14.23;10.10;;;6.90;99.90;;;;;;4974952;28;20553;-71
2022/11/12 02:06:05;;;;;;;11.48;9.13;;;6.80;99.90;;;;;;4975411;28;20035;-71
2022/11/12 02:08:31;;;;;;;14.65;9.18;;;6.70;99.90;;;;;;4975063;28;20118;-71
2022/11/12 02:10:57;;;;;;;14.90;10.73;;;6.70;99.90;;;;;;4975053;28;20123;-71
2022/11/12 02:16:09;;;;;;;13.20;9.77;;;6.70;99.90;;;;;;4975162;28;20054;-71
2022/11/12 02:18:35;;;;;;;14.07;10.40;;;6.70;99.90;;;;;;4975083;28;20054;-71
2022/11/12 02:21:07;;;;;;;14.52;10.38;;;6.80;99.90;;;;;;4975123;28;20455;-71
2022/11/12 02:23:33;;;;;;;15.80;10.43;;;6.60;99.90;;;;;;4974613;28;20049;-71
2022/11/12 02:25:59;;;;;;;14.35;10.65;;;6.90;99.90;;;;;;4974741;28;20620;-71
2022/11/12 02:28:27;;;;;;;14.27;9.48;;;6.60;99.90;;;;;;4974955;28;20046;-71
2022/11/12 02:30:52;;;;;;;14.32;9.82;;;6.70;99.90;;;;;;4974926;28;20039;-71
2022/11/12 02:33:18;;;;;;;15.50;10.27;;;6.60;99.90;;;;;;4974585;28;20034;-71
2022/11/12 02:35:44;;;;;;;14.18;9.73;;;6.80;99.90;;;;;;4989781;28;20046;-71
2022/11/12 02:38:09;;;;;;;14.88;10.25;;;6.60;99.90;;;;;;4974567;28;20031;-71
2022/11/12 02:40:35;;;;;;;17.13;10.80;;;6.80;99.90;;;;;;4989623;28;20078;-71
2022/11/12 02:43:00;;;;;;;18.00;10.65;;;6.80;99.90;;;;;;4974481;28;20045;-70
2022/11/12 02:45:26;;;;;;;14.80;11.02;;;6.70;99.90;;;;;;4974760;28;20062;-70
2022/11/12 02:47:52;;;;;;;14.70;10.45;;;6.80;99.90;;;;;;4973134;28;20054;-70
2022/11/12 02:50:18;;;;;;;17.02;10.43;;;6.80;99.90;;;;;;4973124;28;20049;-71
2022/11/12 02:52:44;;;;;;;15.45;10.32;;;6.60;99.90;;;;;;4974037;28;20035;-71
2022/11/12 02:55:11;;;;;;;16.25;10.82;;;6.70;99.90;;;;;;4974275;28;20060;-70
2022/11/12 02:57:37;;;;;;;21.08;12.00;;;6.70;99.90;;;;;;4972897;28;20497;-71
2022/11/12 03:00:04;;;;;;;19.08;12.48;;;6.70;99.90;;;;;;4974403;28;20042;-71
2022/11/12 03:02:30;;;;;;;15.48;11.93;;;6.70;99.90;;;;;;4973740;28;20043;-71
2022/11/12 03:04:56;;;;;;;17.27;12.75;;;6.70;99.90;;;;;;4974204;28;20034;-71
2022/11/12 03:07:21;;;;;;;14.75;11.65;;;6.60;99.90;;;;;;4989104;28;20532;-71
2022/11/12 03:09:46;;;;;;;15.73;11.68;;;6.60;99.90;;;;;;4973792;28;20549;-71
2022/11/12 03:12:12;;;;;;;14.27;11.23;;;6.60;99.90;;;;;;4974028;28;20039;-71
2022/11/12 03:14:37;;;;;;;18.27;11.00;;;6.70;99.90;;;;;;4973905;28;20121;-71
2022/11/12 03:17:03;;;;;;;16.73;10.82;;;6.60;99.90;;;;;;4974067;28;20035;-71
2022/11/12 03:19:29;;;;;;;15.20;10.35;;;6.60;99.90;;;;;;4973756;28;20042;-71
2022/11/12 03:21:54;;;;;;;18.88;10.88;;;6.50;99.90;;;;;;4973785;28;20129;-71
2022/11/12 03:24:20;;;;;;;19.88;11.40;;;6.50;99.90;;;;;;4973313;28;20043;-71
2022/11/12 03:26:45;;;;;;;17.77;12.30;;;6.60;99.90;;;;;;4954570;28;20083;-71
2022/11/12 03:29:11;;;;;;;19.30;12.23;;;6.50;99.90;;;;;;4954489;28;20040;-71
2022/11/12 03:31:37;;;;;;;16.30;10.93;;;6.60;99.90;;;;;;4954474;28;20047;-71
2022/11/12 03:34:03;;;;;;;14.52;10.27;;;6.50;99.90;;;;;;4954083;28;20044;-71
2022/11/12 03:36:29;;;;;;;15.43;11.18;;;6.50;99.90;;;;;;4954396;28;20126;-71
2022/11/12 03:38:55;;;;;;;14.48;11.45;;;6.50;99.90;;;;;;4954071;28;20042;-71
2022/11/12 03:41:20;;;;;;;17.88;12.43;;;6.50;99.90;;;;;;4954371;29;20452;-71
2022/11/12 03:43:46;;;;;;;16.88;12.05;;;6.60;99.90;;;;;;4968615;28;20133;-71
2022/11/12 03:46:12;;;;;;;18.75;11.77;;;6.40;99.90;;;;;;4954357;28;20114;-71
2022/11/12 03:48:37;;;;;;;19.10;12.23;;;6.40;99.90;;;;;;4954056;28;20035;-71
2022/11/12 03:51:03;;;;;;;16.83;12.02;;;6.40;99.90;;;;;;4952733;29;20097;-71
2022/11/12 03:53:29;;;;;;;15.10;11.07;;;6.40;99.90;;;;;;4953634;28;20124;-71
2022/11/12 03:55:54;;;;;;;16.52;10.82;;;6.50;99.90;;;;;;4954071;28;20055;-71
2022/11/12 03:58:20;;;;;;;11.98;9.65;;;6.40;99.90;;;;;;4954073;28;20541;-71
2022/11/12 04:00:45;;;;;;;17.42;10.30;;;6.60;99.90;;;;;;4952671;29;20043;-71
2022/11/12 04:03:10;;;;;;;15.88;11.80;;;6.30;99.90;;;;;;4953669;28;20062;-70
2022/11/12 04:08:34;;;;;;;16.23;11.35;;;6.30;99.90;;;;;;4977556;23;20209;-72
2022/11/12 04:11:11;;;;;;;15.43;11.70;;;6.30;99.90;;;;;;4973310;28;20063;-71
2022/11/12 04:13:38;;;;;;;15.88;11.02;;;6.40;99.90;;;;;;4955270;28;20038;-72
2022/11/12 04:21:49;;;;;;;16.00;12.07;;;6.20;99.90;;;;;;4971800;28;20113;-72
2022/11/12 04:27:29;;;;;;;20.67;13.05;;;6.00;99.90;;;;;;4971823;28;20178;-72
2022/11/12 04:32:51;;;;;;;14.80;10.70;;;6.10;99.90;;;;;;4971603;28;20266;-71
2022/11/12 04:35:18;;;;;;;14.70;10.10;;;6.00;99.90;;;;;;4972075;28;20089;-71
2022/11/12 04:37:44;;;;;;;16.58;12.32;;;6.10;99.90;;;;;;4971860;28;20536;-71
2022/11/12 04:45:50;;;;;;;15.52;11.25;;;5.90;99.90;;;;;;4975581;28;20054;-72
2022/11/12 04:48:16;;;;;;;16.33;12.38;;;5.70;99.90;;;;;;4975424;28;20090;-72
2022/11/12 04:50:45;;;;;;;26.90;16.33;;;5.80;99.90;;;;;;4975428;28;20034;-71
2022/11/12 04:53:11;;;;;;;34.38;20.65;;;5.80;99.90;;;;;;4975429;28;20112;-71
2022/11/12 04:55:37;;;;;;;25.58;18.00;;;5.80;99.90;;;;;;4975649;28;20047;-72
2022/11/12 04:58:02;;;;;;;26.98;19.15;;;5.80;99.90;;;;;;4975149;28;20539;-72
2022/11/12 05:00:28;;;;;;;21.17;15.50;;;6.10;99.90;;;;;;4975275;28;20055;-71
2022/11/12 05:02:54;;;;;;;19.10;12.73;;;6.10;99.90;;;;;;4975066;28;20058;-71
2022/11/12 05:05:19;;;;;;;22.23;15.80;;;5.80;99.90;;;;;;4976592;28;20035;-71
2022/11/12 05:07:45;;;;;;;23.50;18.17;;;5.80;99.90;;;;;;4975132;28;20043;-71
2022/11/12 05:10:10;;;;;;;23.05;15.45;;;6.00;99.90;;;;;;4976226;28;20045;-71
2022/11/12 05:12:36;;;;;;;20.23;14.30;;;5.90;99.90;;;;;;4975946;28;20045;-71
2022/11/12 05:15:03;;;;;;;15.18;12.07;;;5.80;99.90;;;;;;4975045;28;20101;-71
2022/11/12 05:17:28;;;;;;;13.55;10.00;;;5.90;99.90;;;;;;4991060;28;20039;-71
2022/11/12 05:19:54;;;;;;;14.68;10.07;;;5.90;99.90;;;;;;4976257;28;20070;-71
2022/11/12 05:22:19;;;;;;;13.55;10.07;;;5.70;99.90;;;;;;4974636;28;20089;-71
2022/11/12 05:24:45;;;;;;;13.23;9.63;;;5.80;99.90;;;;;;4974715;28;20405;-72
2022/11/12 05:27:19;;;;;;;15.00;10.30;;;5.60;99.90;;;;;;4975932;28;20035;-71
2022/11/12 05:29:44;;;;;;;14.20;11.07;;;5.60;99.90;;;;;;4975918;28;20054;-71
2022/11/12 05:32:12;;;;;;;15.38;10.60;;;5.70;99.90;;;;;;4974999;28;20043;-71
2022/11/12 05:34:38;;;;;;;15.52;11.60;;;5.60;99.90;;;;;;4974653;28;20046;-71
2022/11/12 05:37:05;;;;;;;22.05;15.60;;;5.50;99.90;;;;;;4974596;28;20125;-71
2022/11/12 05:39:31;;;;;;;30.85;12.77;;;5.60;99.90;;;;;;4974505;28;20207;-71
2022/11/12 05:41:57;;;;;;;16.58;10.95;;;5.60;99.90;;;;;;4974728;28;20137;-71
2022/11/12 05:44:22;;;;;;;19.92;14.90;;;5.50;99.90;;;;;;4974139;28;20065;-71
2022/11/12 05:46:49;;;;;;;17.75;15.00;;;5.50;99.90;;;;;;4974473;28;20035;-71
2022/11/12 05:49:15;;;;;;;17.83;15.23;;;5.60;99.90;;;;;;4974131;28;20047;-71
2022/11/12 05:51:41;;;;;;;16.50;13.77;;;5.70;99.90;;;;;;4973808;28;20170;-71
2022/11/12 05:54:07;;;;;;;14.15;12.52;;;5.50;99.90;;;;;;4973921;28;20125;-71
2022/11/12 05:56:33;;;;;;;16.77;12.90;;;5.70;99.90;;;;;;4975414;28;20042;-71
2022/11/12 05:59:00;;;;;;;14.60;11.43;;;5.80;99.90;;;;;;4974178;28;20657;-71
2022/11/12 06:01:26;;;;;;;15.05;11.95;;;5.70;99.90;;;;;;4974174;28;20089;-71
2022/11/12 06:03:51;;;;;;;34.90;15.32;;;5.60;99.90;;;;;;4973848;28;20534;-71
2022/11/12 06:06:17;;;;;;;18.35;16.42;;;5.80;99.90;;;;;;4974246;28;20057;-71
2022/11/12 06:08:43;;;;;;;13.48;11.60;;;5.50;99.90;;;;;;4973888;28;20035;-71
2022/11/12 06:11:08;;;;;;;13.50;11.20;;;5.50;99.90;;;;;;4957901;28;20070;-71
2022/11/12 06:13:34;;;;;;;12.43;10.57;;;5.60;99.90;;;;;;4973971;28;20121;-71
2022/11/12 06:15:59;;;;;;;12.65;11.00;;;5.50;99.90;;;;;;4974147;28;20045;-71
2022/11/12 06:18:25;;;;;;;10.80;8.75;;;5.50;99.90;;;;;;4973769;28;20081;-71
2022/11/12 06:23:35;;;;;;;22.23;13.60;;;5.30;99.90;;;;;;4973558;28;20051;-72
2022/11/12 06:26:01;;;;;;;14.93;11.30;;;5.30;99.90;;;;;;4973767;28;20378;-72
2022/11/12 06:28:27;;;;;;;12.13;8.63;;;5.10;99.90;;;;;;4973821;28;20043;-72
2022/11/12 06:30:52;;;;;;;10.15;8.18;;;5.20;99.90;;;;;;4974027;28;20134;-72
2022/11/12 06:33:18;;;;;;;9.85;8.60;;;5.30;99.90;;;;;;4973450;28;20513;-71
2022/11/12 06:35:43;;;;;;;14.18;9.18;;;5.20;99.90;;;;;;4973522;28;20432;-71
2022/11/12 06:38:09;;;;;;;19.40;10.50;;;5.20;99.90;;;;;;4973328;28;20047;-71
2022/11/12 06:40:35;;;;;;;15.68;11.48;;;5.20;99.90;;;;;;4972903;28;20497;-71
2022/11/12 06:43:00;;;;;;;14.15;9.43;;;5.20;99.90;;;;;;4973113;28;20089;-71
2022/11/12 06:45:26;;;;;;;12.85;10.45;;;5.50;99.90;;;;;;4973270;28;20039;-71
2022/11/12 06:47:51;;;;;;;11.00;9.80;;;5.20;99.90;;;;;;4973102;28;20031;-72
2022/11/12 06:50:17;;;;;;;10.88;9.27;;;5.20;99.90;;;;;;4974432;28;20043;-72
2022/11/12 06:52:42;;;;;;;11.02;9.55;;;5.50;99.90;;;;;;4972825;28;20043;-71
2022/11/12 06:55:08;;;;;;;27.95;9.85;;;5.60;99.90;;;;;;4974587;28;20045;-71
2022/11/12 06:57:34;;;;;;;15.23;9.02;;;5.30;99.90;;;;;;4973417;28;20038;-72
2022/11/12 06:59:59;;;;;;;11.80;9.73;;;5.20;99.90;;;;;;4972804;28;20043;-71
2022/11/12 07:02:25;;;;;;;15.95;9.30;;;5.40;99.90;;;;;;4971788;28;20047;-71
2022/11/12 07:04:51;;;;;;;11.70;8.43;;;5.60;99.90;;;;;;4974255;28;20556;-72
2022/11/12 07:07:16;;;;;;;12.73;10.55;;;5.60;99.90;;;;;;4974127;28;20046;-74
2022/11/12 07:09:42;;;;;;;14.60;10.90;;;5.50;99.90;;;;;;4956814;28;20078;-74
2022/11/12 07:12:07;;;;;;;25.88;11.45;;;5.50;99.90;;;;;;4972836;28;20084;-74
2022/11/12 07:14:33;;;;;;;10.68;8.85;;;5.40;99.90;;;;;;4972382;28;20093;-74
2022/11/12 07:16:58;;;;;;;16.45;10.35;;;5.30;99.90;;;;;;4972977;28;20042;-74
2022/11/12 07:19:24;;;;;;;10.27;8.35;;;5.40;99.90;;;;;;4973143;28;20109;-74
2022/11/12 07:21:50;;;;;;;26.08;10.32;;;5.60;99.90;;;;;;4972801;28;20026;-73
2022/11/12 07:24:15;;;;;;;11.15;9.18;;;5.50;99.90;;;;;;4973752;28;20568;-74
2022/11/12 07:26:41;;;;;;;11.50;9.00;;;5.60;99.90;;;;;;4972713;28;20034;-74
2022/11/12 07:29:07;;;;;;;10.27;8.68;;;5.60;99.90;;;;;;4972714;28;20081;-74
2022/11/12 07:31:32;;;;;;;9.85;8.68;;;5.30;99.90;;;;;;4972665;28;20031;-74
2022/11/12 07:33:58;;;;;;;8.52;7.60;;;5.60;99.90;;;;;;4955983;28;20108;-74
2022/11/12 07:36:23;;;;;;;9.50;7.97;;;5.70;99.90;;;;;;4972355;28;20417;-74
2022/11/12 07:38:53;;;;;;;8.80;7.85;;;5.40;99.90;;;;;;4972650;28;20050;-74
2022/11/12 07:41:21;;;;;;;10.35;8.18;;;5.70;99.90;;;;;;4972662;28;20125;-73
2022/11/12 07:43:48;;;;;;;10.10;8.15;;;5.70;99.90;;;;;;4971992;28;20046;-74
2022/11/12 07:46:16;;;;;;;9.48;7.75;;;5.50;99.90;;;;;;4972341;28;20039;-74
2022/11/12 07:48:43;;;;;;;12.32;9.38;;;5.60;99.90;;;;;;4972129;28;20035;-74
2022/11/12 07:51:14;;;;;;;17.95;10.07;;;5.60;99.90;;;;;;4972175;28;20042;-74
2022/11/12 07:53:40;;;;;;;13.02;9.30;;;5.90;99.90;;;;;;4955779;28;20046;-74
2022/11/12 07:56:06;;;;;;;20.60;10.70;;;5.70;99.90;;;;;;4972577;28;20057;-74
2022/11/12 07:58:33;;;;;;;15.05;9.70;;;5.80;99.90;;;;;;4972100;28;20497;-74
2022/11/12 08:01:24;;;;;;;20.50;10.65;;;5.60;99.90;;;;;;4972057;28;20043;-74
2022/11/12 08:03:50;;;;;;;17.15;10.75;;;5.60;99.90;;;;;;4971706;28;20043;-73
2022/11/12 08:06:15;;;;;;;30.60;13.07;;;6.10;99.90;;;;;;4972294;28;20049;-74
2022/11/12 08:08:41;;;;;;;43.53;13.38;;;5.80;99.90;;;;;;4971894;28;20043;-74
2022/11/12 08:11:08;;;;;;;25.13;11.68;;;5.80;99.90;;;;;;4973265;28;20046;-74
2022/11/12 08:13:33;;;;;;;19.70;11.82;;;5.90;99.90;;;;;;4971860;28;20097;-74
2022/11/12 08:15:59;;;;;;;27.45;13.63;;;6.20;99.90;;;;;;4973042;28;20046;-74
2022/11/12 08:18:25;;;;;;;20.48;12.00;;;6.00;99.90;;;;;;4971983;28;20089;-74
2022/11/12 08:20:51;;;;;;;104.43;18.88;;;6.10;99.90;;;;;;4972943;28;20496;-74
2022/11/12 08:23:17;;;;;;;29.42;14.90;;;6.00;99.90;;;;;;4971109;28;20105;-73
2022/11/12 08:25:42;;;;;;;72.55;17.77;;;6.20;99.90;;;;;;4955657;28;20452;-74
2022/11/12 08:28:08;;;;;;;23.58;13.20;;;6.40;99.90;;;;;;4971708;28;20131;-74
2022/11/12 08:30:34;;;;;;;39.47;17.52;;;6.10;99.90;;;;;;4971866;28;20042;-74
2022/11/12 08:33:02;;;;;;;28.17;15.10;;;6.30;99.90;;;;;;4971391;28;20508;-74
2022/11/12 08:35:29;;;;;;;38.38;16.48;;;6.30;99.90;;;;;;4971708;28;20042;-74
2022/11/12 08:38:03;;;;;;;44.10;18.48;;;6.40;99.90;;;;;;4971681;28;20043;-74
2022/11/12 08:40:30;;;;;;;41.95;18.40;;;6.70;99.90;;;;;;4971612;28;20058;-74
2022/11/12 08:43:00;;;;;;;35.03;19.85;;;6.60;99.90;;;;;;4971320;28;20046;-74
2022/11/12 08:45:27;;;;;;;30.67;16.52;;;6.50;99.90;;;;;;4971596;28;20047;-74
2022/11/12 08:47:58;;;;;;;28.48;16.23;;;6.80;99.90;;;;;;4955602;28;20046;-74
2022/11/12 08:50:24;;;;;;;29.05;16.85;;;6.70;99.90;;;;;;4971526;28;20039;-74
2022/11/12 08:52:49;;;;;;;101.85;22.00;;;6.80;99.90;;;;;;4971393;28;20117;-73
2022/11/12 08:55:15;;;;;;;74.18;21.70;;;6.70;99.90;;;;;;4972759;28;20575;-74
2022/11/12 08:57:42;;;;;;;48.03;21.25;;;6.90;99.90;;;;;;4971616;28;20043;-74
2022/11/12 09:00:11;;;;;;;42.65;20.17;;;7.00;99.90;;;;;;4971709;28;20039;-74
2022/11/12 09:02:37;;;;;;;51.25;22.70;;;6.90;99.90;;;;;;4971002;28;20050;-74
2022/11/12 09:05:03;;;;;;;80.80;26.38;;;6.90;99.90;;;;;;4971374;28;20039;-74
2022/11/12 09:07:29;;;;;;;65.25;25.67;;;7.10;99.90;;;;;;4971353;28;20085;-75
2022/11/12 09:09:55;;;;;;;93.57;27.60;;;7.00;99.90;;;;;;4972469;28;20102;-75
2022/11/12 09:12:21;;;;;;;83.13;27.05;;;7.10;99.90;;;;;;4970928;28;20039;-75
2022/11/12 09:14:46;;;;;;;77.13;29.33;;;7.20;99.90;;;;;;4955528;28;20043;-75
2022/11/12 09:17:12;;;;;;;44.72;23.50;;;7.10;99.90;;;;;;4971442;28;20042;-75
2022/11/12 09:19:38;;;;;;;53.22;25.40;;;7.40;99.90;;;;;;4971302;28;20094;-76
2022/11/12 09:22:03;;;;;;;76.50;28.65;;;7.30;99.90;;;;;;4955381;28;20054;-76
2022/11/12 09:24:29;;;;;;;75.22;29.67;;;7.30;99.90;;;;;;4954836;28;20097;-76
2022/11/12 09:26:54;;;;;;;74.50;27.02;;;7.40;99.90;;;;;;4974637;28;20041;-76
2022/11/12 09:29:20;;;;;;;51.97;24.38;;;7.50;99.90;;;;;;4974723;28;20043;-76
2022/11/12 09:31:46;;;;;;;57.10;27.23;;;7.60;99.90;;;;;;4974699;28;20034;-76
2022/11/12 09:34:12;;;;;;;101.38;31.88;;;7.60;99.90;;;;;;4974493;28;20117;-76
2022/11/12 09:36:38;;;;;;;87.88;26.90;;;7.70;99.90;;;;;;4974948;28;20398;-76
2022/11/12 09:39:03;;;;;;;96.00;30.58;;;7.70;99.90;;;;;;4974529;28;20101;-76
2022/11/12 09:41:34;;;;;;;77.20;29.27;;;7.90;99.90;;;;;;4974470;28;20158;-76
2022/11/12 09:44:20;;;;;;;94.30;28.83;;;7.80;99.90;;;;;;4974155;28;20043;-76
2022/11/12 09:47:20;;;;;;;66.97;26.50;;;7.80;99.90;;;;;;4974773;28;20395;-76
2022/11/12 09:50:14;;;;;;;129.07;34.55;;;7.90;99.90;;;;;;4967102;28;20416;-76
2022/11/12 09:52:42;;;;;;;68.53;30.00;;;7.90;99.90;;;;;;4974146;28;20086;-76
2022/11/12 09:55:10;;;;;;;99.07;32.60;;;8.00;99.90;;;;;;4974345;28;20046;-76
2022/11/12 09:57:36;;;;;;;96.97;30.88;;;8.10;99.90;;;;;;4974350;28;20042;-76
2022/11/12 10:00:02;;;;;;;102.35;32.00;;;8.20;99.90;;;;;;4974085;28;20407;-76
2022/11/12 10:02:36;;;;;;;68.03;27.65;;;8.10;99.90;;;;;;4974193;28;20393;-76
2022/11/12 10:05:22;;;;;;;58.35;24.77;;;8.10;99.90;;;;;;4974226;28;20409;-76
2022/11/12 10:10:46;;;;;;;78.95;31.13;;;8.20;99.90;;;;;;5011556;23;20061;-74
2022/11/12 10:13:49;;;;;;;92.80;31.60;;;8.30;99.90;;;;;;4992573;28;20077;-73
2022/11/12 10:16:56;;;;;;;62.90;28.27;;;8.20;99.90;;;;;;4994950;28;20042;-74
2022/11/12 10:19:37;;;;;;;89.57;32.88;;;8.20;99.90;;;;;;4984711;28;20094;-73
2022/11/12 10:22:30;;;;;;;82.95;31.90;;;8.20;99.90;;;;;;4973641;28;20493;-73
2022/11/12 10:24:58;;;;;;;67.87;28.43;;;8.20;99.90;;;;;;4975162;28;20047;-73
2022/11/12 10:27:31;;;;;;;80.38;31.25;;;8.20;99.90;;;;;;4974831;28;20337;-73
2022/11/12 10:30:03;;;;;;;97.63;32.53;;;8.20;99.90;;;;;;4974944;28;20045;-74
2022/11/12 10:32:29;;;;;;;109.35;33.63;;;8.40;99.90;;;;;;4989408;28;20031;-73
2022/11/12 10:34:54;;;;;;;93.15;34.40;;;8.30;99.90;;;;;;4974681;28;20105;-73
2022/11/12 10:37:38;;;;;;;129.15;40.22;;;8.40;99.90;;;;;;4973457;28;20046;-73
2022/11/12 10:40:28;;;;;;;53.90;29.77;;;8.30;99.90;;;;;;4974741;28;20042;-73
2022/11/12 10:42:56;;;;;;;129.43;37.38;;;8.40;99.90;;;;;;4973149;28;20047;-73
2022/11/12 10:45:22;;;;;;;80.40;34.03;;;8.40;99.90;;;;;;4974585;28;20050;-75
2022/11/12 10:47:49;;;;;;;61.25;34.80;;;8.30;99.90;;;;;;4974704;28;20042;-75
2022/11/12 10:50:21;;;;;;;63.15;35.35;;;8.40;99.90;;;;;;4974617;28;20370;-73
2022/11/12 10:53:02;;;;;;;76.00;38.25;;;8.40;99.90;;;;;;4972842;28;20054;-73
2022/11/12 10:55:35;;;;;;;157.10;51.20;;;8.40;99.90;;;;;;4974499;28;20208;-72
2022/11/12 10:58:05;;;;;;;80.10;39.33;;;8.30;99.90;;;;;;4973060;28;20046;-72
2022/11/12 11:00:31;;;;;;;55.30;31.25;;;8.40;99.90;;;;;;4973027;28;20058;-72
2022/11/12 11:02:57;;;;;;;57.95;34.75;;;8.40;99.90;;;;;;4972650;28;20046;-75
2022/11/12 11:05:45;;;;;;;68.15;36.35;;;8.40;99.90;;;;;;4973417;28;20062;-73
2022/11/12 11:08:11;;;;;;;74.28;41.22;;;8.50;99.90;;;;;;4973047;28;20571;-73
2022/11/12 11:10:36;;;;;;;65.05;35.28;;;8.50;99.90;;;;;;4973155;28;20051;-73
2022/11/12 11:13:25;;;;;;;73.03;40.05;;;8.50;99.90;;;;;;4973893;28;20043;-73
2022/11/12 11:15:58;;;;;;;62.75;36.00;;;8.60;99.90;;;;;;4974001;28;20445;-73
2022/11/12 11:18:24;;;;;;;;;;;8.70;99.90;;;;;;4973167;28;20089;-73
2022/11/12 11:21:12;;;;;;;58.70;33.92;;;8.60;99.90;;;;;;4972955;28;19961;-73
2022/11/12 11:24:14;;;;;;;62.47;35.80;;;8.80;99.90;;;;;;4972193;28;20133;-73
2022/11/12 11:27:09;;;;;;;59.70;36.70;;;8.80;99.90;;;;;;4972904;28;20047;-73
2022/11/12 11:30:06;;;;;;;68.60;36.30;;;8.70;99.90;;;;;;4972690;28;20437;-72
2022/11/12 11:32:47;;;;;;;74.72;40.63;;;8.90;99.90;;;;;;4972414;28;20065;-73
2022/11/12 11:35:38;;;;;;;59.75;33.28;;;9.00;99.90;;;;;;4972434;28;20038;-73
2022/11/12 11:38:22;;;;;;;58.72;36.50;;;8.90;99.90;;;;;;4971605;28;20084;-73
2022/11/12 11:41:06;;;;;;;75.97;41.38;;;9.00;99.90;;;;;;4968587;28;20038;-73
2022/11/12 11:43:35;;;;;;;;;;;8.90;99.90;;;;;;4970049;28;20045;-72
2022/11/12 11:46:14;;;;;;;55.25;36.00;;;9.00;99.90;;;;;;4973440;28;19918;-73
2022/11/12 11:48:46;;;;;;;59.65;35.85;;;9.10;99.90;;;;;;4973101;28;20049;-73
2022/11/12 11:51:33;;;;;;;57.50;34.38;;;9.10;99.90;;;;;;4973567;28;20118;-72
2022/11/12 11:54:14;;;;;;;64.53;37.78;;;9.30;99.90;;;;;;4973067;28;20047;-73
2022/11/12 11:56:42;;;;;;;63.08;36.75;;;9.40;99.90;;;;;;4973140;28;20038;-73
2022/11/12 11:59:24;;;;;;;54.58;33.65;;;9.50;99.90;;;;;;4973227;28;20548;-72
2022/11/12 12:02:25;;;;;;;60.28;36.05;;;9.40;99.90;;;;;;4971918;28;20046;-73
2022/11/12 12:05:09;;;;;;;67.68;37.40;;;9.40;99.90;;;;;;4971686;28;20046;-73
2022/11/12 12:08:02;;;;;;;56.63;31.05;;;9.40;99.90;;;;;;4973328;28;20042;-72
2022/11/12 12:10:27;;;;;;;49.30;31.75;;;9.60;99.90;;;;;;4972962;28;20487;-73
2022/11/12 12:13:12;;;;;;;56.53;33.50;;;9.50;99.90;;;;;;4971367;28;20193;-73
2022/11/12 12:15:55;;;;;;;54.38;32.47;;;9.60;99.90;;;;;;4972875;28;20058;-73
2022/11/12 12:18:38;;;;;;;51.53;32.97;;;9.80;99.90;;;;;;4973113;28;20050;-73
2022/11/12 12:21:10;;;;;;;;;;;9.80;99.90;;;;;;4972076;28;20286;-73
2022/11/12 12:23:54;;;;;;;47.53;30.42;;;9.80;99.90;;;;;;4971339;28;20012;-74
2022/11/12 12:26:42;;;;;;;42.80;29.98;;;9.90;99.90;;;;;;4971702;28;20526;-74
2022/11/12 12:29:28;;;;;;;40.67;27.33;;;10.00;99.90;;;;;;4955570;28;20089;-74
2022/11/12 12:32:13;;;;;;;31.80;23.25;;;10.00;99.90;;;;;;4987964;28;20039;-74
2022/11/12 12:34:44;;;;;;;38.72;25.60;;;10.10;99.90;;;;;;4973179;28;20060;-74
2022/11/12 12:37:27;;;;;;;31.92;23.20;;;10.30;99.90;;;;;;4971667;28;20046;-74
2022/11/12 12:40:14;;;;;;;30.20;21.55;;;10.40;99.90;;;;;;4971398;28;20456;-74
2022/11/12 12:42:55;;;;;;;34.70;22.95;;;10.30;99.90;;;;;;4971145;28;20539;-74
2022/11/12 12:45:29;;;;;;;27.48;20.35;;;10.20;99.90;;;;;;4971521;28;20039;-74
2022/11/12 12:47:56;;;;;;;31.73;23.20;;;10.20;99.90;;;;;;4971696;28;20054;-74
2022/11/12 12:50:22;;;;;;;34.10;24.23;;;10.40;99.90;;;;;;4971169;28;20039;-74
2022/11/12 12:53:02;;;;;;;35.17;23.58;;;10.40;99.90;;;;;;4971327;28;20054;-74
2022/11/12 12:55:41;;;;;;;36.85;24.25;;;10.30;99.90;;;;;;4971360;28;20097;-74
2022/11/12 12:58:20;;;;;;;30.02;21.90;;;10.30;99.90;;;;;;4971296;28;20524;-74
2022/11/12 13:00:48;;;;;;;30.80;23.27;;;10.40;99.90;;;;;;4973109;28;20038;-74
2022/11/12 13:03:45;;;;;;;32.88;22.23;;;10.40;99.90;;;;;;4976123;28;20043;-74
2022/11/12 13:06:22;;;;;;;36.92;23.88;;;10.50;99.90;;;;;;4976573;28;20035;-74
2022/11/12 13:08:50;;;;;;;25.38;18.95;;;10.50;99.90;;;;;;4975200;28;20042;-74
2022/11/12 13:14:35;;;;;;;23.95;16.85;;;10.40;99.90;;;;;;4974628;28;20058;-74
2022/11/12 13:17:07;;;;;;;21.77;16.67;;;10.40;99.90;;;;;;4976139;28;20507;-74
2022/11/12 13:19:46;;;;;;;21.02;14.95;;;10.40;99.90;;;;;;4974780;28;20043;-74
2022/11/12 13:22:17;;;;;;;22.70;15.88;;;10.50;99.90;;;;;;4974727;28;20043;-74